Terminal Aerodrome Forecast
Issued by NWS

Home | Current Version | Previous Version | Text Only | Print | Product List | Glossary On
Versions: 1 2 3 4 5 6 7 8 9 10 11 12 13 14 15 16 17 18
000
FTUS43 KMPX 221100
TAFRNH
TAF
KRNH 221139Z 2212/2312 21010KT 3SM BR OVC006
     FM222000 20008KT 5SM BR OVC009
     FM230100 17008KT 2SM BR OVC004
     FM230600 16008KT 1SM BR OVC003
      TEMPO 2308/2312 1/4SM FG VV002=

USA.gov is the U.S. government's official web portal to all federal, state and local government web resources and services.